Time;durP1;ratioP1;P1;durP2;ratioP2;P2;SDS_P1;SDS_P2;PMS_P1;PMS_P2;Temp;Humidity;BMP_temperature;BMP_pressure;BME280_temperature;BME280_humidity;BME280_pressure;Samples;Min_cycle;Max_cycle;Signal;HPM_P1;HPM_P2
2021/07/02 00:01:13;;;;;;;11.45;5.20;;;13.40;99.90;;;;;;4973795;28;20030;-78
2021/07/02 00:03:38;;;;;;;16.55;5.30;;;13.40;99.90;;;;;;4974260;28;20031;-78
2021/07/02 00:06:06;;;;;;;9.48;5.30;;;13.40;99.90;;;;;;4975122;28;20054;-79
2021/07/02 00:08:32;;;;;;;10.20;5.43;;;13.40;99.90;;;;;;4975560;28;20035;-79
2021/07/02 00:10:58;;;;;;;6.93;4.93;;;13.40;99.90;;;;;;4975546;28;20035;-79
2021/07/02 00:13:24;;;;;;;9.52;4.88;;;13.10;99.90;;;;;;4975098;28;20542;-78
2021/07/02 00:15:50;;;;;;;9.05;4.80;;;13.30;99.90;;;;;;4972337;28;20391;-79
2021/07/02 00:18:15;;;;;;;14.68;5.07;;;14.10;99.90;;;;;;4975396;28;20026;-79
2021/07/02 00:20:41;;;;;;;7.80;5.25;;;13.40;99.90;;;;;;4968152;28;20129;-79
2021/07/02 00:23:06;;;;;;;8.95;5.72;;;13.20;99.90;;;;;;4955712;28;20073;-78
2021/07/02 00:25:32;;;;;;;10.35;5.72;;;14.20;99.90;;;;;;4952816;29;20111;-78
2021/07/02 00:27:58;;;;;;;12.70;5.75;;;13.00;99.90;;;;;;4952642;29;20034;-78
2021/07/02 00:30:23;;;;;;;9.63;5.32;;;13.30;99.90;;;;;;4952327;28;20035;-79
2021/07/02 00:32:50;;;;;;;11.35;5.85;;;13.10;99.90;;;;;;4953029;28;20028;-78
2021/07/02 00:35:15;;;;;;;11.43;6.10;;;13.50;99.90;;;;;;4953945;28;20031;-79
2021/07/02 00:37:41;;;;;;;8.65;5.07;;;12.90;99.90;;;;;;4952962;29;20031;-79
2021/07/02 00:40:07;;;;;;;7.50;4.80;;;12.60;99.90;;;;;;4953307;28;20027;-78
2021/07/02 00:42:33;;;;;;;9.23;5.07;;;12.50;99.90;;;;;;4954059;28;20038;-78
2021/07/02 00:44:59;;;;;;;13.25;5.47;;;12.70;99.90;;;;;;4954123;28;20031;-78
2021/07/02 00:47:25;;;;;;;13.80;6.00;;;12.40;99.90;;;;;;4953817;28;20142;-78
2021/07/02 00:49:51;;;;;;;8.07;5.50;;;13.30;99.90;;;;;;4951900;28;20122;-78
2021/07/02 00:52:17;;;;;;;11.93;6.20;;;12.50;99.90;;;;;;4953828;28;20106;-78
2021/07/02 00:54:46;;;;;;;13.23;6.50;;;12.30;99.90;;;;;;4953775;28;20055;-79
2021/07/02 00:57:12;;;;;;;10.90;6.47;;;13.20;99.90;;;;;;4962228;28;20381;-79
2021/07/02 00:59:41;;;;;;;12.63;6.25;;;13.10;99.90;;;;;;4972465;28;20030;-79
2021/07/02 01:02:07;;;;;;;13.30;6.95;;;12.60;99.90;;;;;;4973160;28;20389;-78
2021/07/02 01:04:33;;;;;;;14.02;7.40;;;13.20;99.90;;;;;;4971545;28;20043;-79
2021/07/02 01:07:00;;;;;;;15.18;6.95;;;12.70;99.90;;;;;;4971675;28;20143;-79
2021/07/02 01:09:26;;;;;;;14.68;6.97;;;12.70;99.90;;;;;;4972518;28;20034;-78
2021/07/02 01:11:52;;;;;;;14.52;7.10;;;12.50;99.90;;;;;;4972950;28;20039;-78
2021/07/02 01:14:19;;;;;;;13.57;7.35;;;12.60;99.90;;;;;;4972537;28;20053;-79
2021/07/02 01:16:44;;;;;;;11.13;6.82;;;12.80;99.90;;;;;;4972728;28;20496;-79
2021/07/02 01:19:10;;;;;;;14.88;7.07;;;13.30;99.90;;;;;;4972639;28;20027;-78
2021/07/02 01:21:36;;;;;;;19.98;8.00;;;12.90;99.90;;;;;;4972298;28;20025;-78
2021/07/02 01:24:03;;;;;;;13.80;7.28;;;12.60;99.90;;;;;;4973123;28;20026;-78
2021/07/02 01:26:31;;;;;;;12.27;7.88;;;12.60;99.90;;;;;;4971225;28;20031;-79
2021/07/02 01:28:56;;;;;;;17.88;7.70;;;13.40;99.90;;;;;;4971889;28;20029;-78
2021/07/02 01:31:22;;;;;;;12.60;7.25;;;13.30;99.90;;;;;;4975786;28;20030;-78
2021/07/02 01:33:48;;;;;;;13.93;7.45;;;14.00;99.90;;;;;;4957042;29;20070;-79
2021/07/02 01:36:20;;;;;;;14.13;7.65;;;12.70;99.90;;;;;;4957311;28;20122;-79
2021/07/02 01:38:46;;;;;;;;;;;13.00;99.90;;;;;;4974670;28;20499;-79
2021/07/02 01:41:12;;;;;;;13.98;7.20;;;12.90;99.90;;;;;;4976277;28;19948;-78
2021/07/02 01:43:38;;;;;;;14.18;7.28;;;13.90;99.90;;;;;;4980544;28;20027;-79
2021/07/02 01:46:03;;;;;;;14.27;7.63;;;12.80;99.90;;;;;;4975518;28;20030;-79
2021/07/02 01:48:29;;;;;;;13.40;7.13;;;12.80;99.90;;;;;;4976594;28;20030;-79
2021/07/02 01:50:55;;;;;;;11.40;6.85;;;13.10;99.90;;;;;;4975749;28;20050;-78
2021/07/02 01:53:21;;;;;;;13.43;7.20;;;13.10;99.90;;;;;;4974279;28;20038;-78
2021/07/02 01:55:47;;;;;;;12.77;8.40;;;13.00;99.90;;;;;;4974993;28;20130;-79
2021/07/02 01:58:12;;;;;;;15.43;6.95;;;14.00;99.90;;;;;;4975997;28;20023;-78
2021/07/02 02:00:38;;;;;;;13.23;6.90;;;13.50;99.90;;;;;;4975636;28;20038;-78
2021/07/02 02:03:04;;;;;;;13.57;7.60;;;13.10;99.90;;;;;;4976161;28;20527;-79
2021/07/02 02:05:30;;;;;;;23.55;7.15;;;13.70;99.90;;;;;;4976401;28;20038;-78
2021/07/02 02:07:55;;;;;;;10.88;6.60;;;13.00;99.90;;;;;;4974708;28;20045;-79
2021/07/02 02:10:21;;;;;;;14.63;6.85;;;13.10;99.90;;;;;;4974375;28;20085;-79
2021/07/02 02:12:47;;;;;;;9.55;6.57;;;13.20;99.90;;;;;;4976152;28;20041;-78
2021/07/02 02:15:13;;;;;;;11.90;6.65;;;13.00;99.90;;;;;;4977249;28;20054;-79
2021/07/02 02:17:39;;;;;;;12.60;6.90;;;12.70;99.90;;;;;;4977239;28;20054;-78
2021/07/02 02:20:07;;;;;;;13.43;7.20;;;12.90;99.90;;;;;;4976661;28;20089;-77
2021/07/02 02:22:33;;;;;;;13.90;7.07;;;12.70;99.90;;;;;;4974268;28;20052;-78
2021/07/02 02:24:59;;;;;;;13.50;7.00;;;12.90;99.90;;;;;;4975972;28;20103;-77
2021/07/02 02:27:25;;;;;;;14.98;8.13;;;12.70;99.90;;;;;;4974536;28;20039;-77
2021/07/02 02:29:51;;;;;;;13.45;7.05;;;13.80;99.90;;;;;;4974998;28;20050;-77
2021/07/02 02:32:17;;;;;;;14.63;7.03;;;12.70;99.90;;;;;;4958635;28;20477;-78
2021/07/02 02:34:42;;;;;;;10.05;6.80;;;13.10;99.90;;;;;;4955019;29;20030;-78
2021/07/02 02:37:08;;;;;;;14.60;7.13;;;13.00;99.90;;;;;;4956019;28;20711;-77
2021/07/02 02:39:34;;;;;;;16.52;7.25;;;12.70;99.90;;;;;;4954905;28;20037;-77
2021/07/02 02:41:59;;;;;;;12.07;7.03;;;12.90;99.90;;;;;;4955958;28;20027;-77
2021/07/02 02:44:25;;;;;;;18.67;7.88;;;12.80;99.90;;;;;;4970673;28;20022;-77
2021/07/02 02:46:51;;;;;;;25.48;7.57;;;12.80;99.90;;;;;;4975335;28;20031;-77
2021/07/02 02:49:17;;;;;;;11.63;6.80;;;12.90;99.90;;;;;;4974861;28;20042;-77
2021/07/02 02:51:43;;;;;;;11.95;6.82;;;12.80;99.90;;;;;;4975048;28;20042;-77
2021/07/02 02:54:09;;;;;;;13.25;7.65;;;12.90;99.90;;;;;;4973820;28;20500;-77
2021/07/02 02:56:35;;;;;;;15.55;7.70;;;12.60;99.90;;;;;;4955941;28;20103;-77
2021/07/02 02:59:00;;;;;;;13.70;7.85;;;13.70;99.90;;;;;;4963362;28;20467;-77
2021/07/02 03:01:26;;;;;;;13.10;7.45;;;12.90;99.90;;;;;;4975190;28;20111;-77
2021/07/02 03:03:52;;;;;;;13.77;7.53;;;13.00;99.90;;;;;;4950783;28;20114;-77
2021/07/02 03:06:18;;;;;;;10.93;7.18;;;13.00;99.90;;;;;;4954410;29;20452;-78
2021/07/02 03:08:44;;;;;;;11.68;6.63;;;13.10;99.90;;;;;;4955412;28;20035;-77
2021/07/02 03:11:09;;;;;;;13.25;6.63;;;13.20;99.90;;;;;;4954047;29;20624;-77
2021/07/02 03:13:35;;;;;;;12.98;6.57;;;13.20;99.90;;;;;;4962036;28;20023;-77
2021/07/02 03:16:01;;;;;;;9.88;5.65;;;13.30;99.90;;;;;;4974831;28;20097;-77
2021/07/02 03:18:26;;;;;;;11.52;6.75;;;;;;;;;;4970472;28;20393;-77
2021/07/02 03:20:53;;;;;;;13.00;6.25;;;;;;;;;;4954840;29;20045;-77
2021/07/02 03:23:19;;;;;;;11.18;5.97;;;;;;;;;;4955254;29;20062;-77
2021/07/02 03:25:45;;;;;;;10.88;5.50;;;;;;;;;;4955336;28;20370;-77
2021/07/02 03:28:11;;;;;;;9.60;6.07;;;;;;;;;;4957471;28;20067;-76
2021/07/02 03:30:37;;;;;;;12.38;6.28;;;;;;;;;;4975431;28;20090;-77
2021/07/02 03:33:03;;;;;;;14.07;6.25;;;;;;;;;;4975264;28;20078;-76
2021/07/02 03:35:29;;;;;;;9.88;5.53;;;;;;;;;;4956616;29;20085;-77
2021/07/02 03:37:55;;;;;;;8.02;5.38;;;;;;;;;;4961789;29;20111;-77
2021/07/02 03:40:21;;;;;;;12.38;5.88;;;;;;;;;;4958370;28;20132;-77
2021/07/02 03:42:47;;;;;;;9.73;5.38;;;;;;;;;;4973962;28;20019;-77
2021/07/02 03:45:13;;;;;;;8.57;5.10;;;;;;;;;;4972845;28;20035;-77
2021/07/02 03:47:39;;;;;;;17.23;5.32;;;;;;;;;;4974452;28;20038;-77
2021/07/02 03:50:06;;;;;;;9.90;5.30;;;;;;;;;;4960930;28;20039;-76
2021/07/02 03:52:32;;;;;;;9.23;5.85;;;;;;;;;;4958774;28;20047;-77
2021/07/02 03:54:59;;;;;;;9.73;5.18;;;;;;;;;;4975346;28;20118;-77
2021/07/02 03:57:25;;;;;;;7.72;5.35;;;;;;;;;;4983017;28;20027;-77
2021/07/02 03:59:52;;;;;;;9.15;5.47;;;;;;;;;;4964305;28;20024;-78
2021/07/02 04:02:20;;;;;;;9.30;5.13;;;;;;;;;;4957859;29;20020;-77
2021/07/02 04:04:46;;;;;;;9.27;5.57;;;;;;;;;;4983940;28;20045;-76
2021/07/02 04:07:13;;;;;;;8.25;5.38;;;;;;;;;;4995669;28;20030;-77
2021/07/02 04:09:39;;;;;;;9.80;5.70;;;;;;;;;;4975029;28;20027;-78
2021/07/02 04:12:05;;;;;;;10.63;5.45;;;;;;;;;;4963817;28;20035;-78
2021/07/02 04:14:32;;;;;;;8.05;5.50;;;;;;;;;;4963434;28;20039;-78
2021/07/02 04:16:58;;;;;;;8.85;5.32;;;;;;;;;;4964842;28;20027;-78
2021/07/02 04:19:24;;;;;;;10.15;5.57;;;;;;;;;;4971455;28;20031;-77
2021/07/02 04:21:51;;;;;;;10.88;5.40;;;;;;;;;;4970505;28;20092;-77
2021/07/02 04:24:17;;;;;;;9.75;4.97;;;;;;;;;;4974798;28;20037;-78
2021/07/02 04:26:43;;;;;;;7.90;5.18;;;;;;;;;;4978189;28;20035;-79
2021/07/02 04:29:09;;;;;;;10.95;5.85;;;;;;;;;;4968679;28;20031;-79
2021/07/02 04:31:35;;;;;;;11.18;5.55;;;;;;;;;;4959540;29;20064;-79
2021/07/02 04:34:01;;;;;;;8.80;5.90;;;;;;;;;;4967339;28;20492;-77
2021/07/02 04:36:28;;;;;;;11.70;5.93;;;;;;;;;;4980729;28;20122;-79
2021/07/02 04:38:55;;;;;;;7.80;5.15;;;;;;;;;;4974579;28;20642;-74
2021/07/02 04:41:21;;;;;;;7.72;5.15;;;;;;;;;;4965739;29;20028;-79
2021/07/02 04:43:48;;;;;;;11.55;6.22;;;;;;;;;;4976425;28;20090;-79
2021/07/02 04:46:14;;;;;;;8.93;4.90;;;;;;;;;;4981684;28;20031;-79
2021/07/02 04:48:40;;;;;;;11.05;5.88;;;;;;;;;;5512107;23;20141;-78
2021/07/02 04:51:07;;;;;;;11.23;5.45;;;;;;;;;;4999942;28;20038;-78
2021/07/02 04:53:33;;;;;;;8.98;5.53;;;;;;;;;;5002522;28;20057;-78
2021/07/02 04:55:59;;;;;;;11.25;6.25;;;;;;;;;;5002386;28;20034;-77
2021/07/02 04:58:25;;;;;;;8.02;5.25;;;;;;;;;;4969435;28;20055;-79
2021/07/02 05:00:51;;;;;;;8.85;5.15;;;;;;;;;;4942333;28;20024;-78
2021/07/02 05:03:17;;;;;;;13.77;5.50;;;;;;;;;;4944890;29;20056;-77
2021/07/02 05:05:43;;;;;;;7.60;4.97;;;;;;;;;;4942452;29;20028;-78
2021/07/02 05:08:10;;;;;;;9.75;5.40;;;;;;;;;;4949554;29;20091;-78
2021/07/02 05:10:36;;;;;;;8.30;5.20;;;;;;;;;;4950500;29;20024;-78
2021/07/02 05:13:03;;;;;;;8.77;5.25;;;;;;;;;;4954706;29;20041;-78
2021/07/02 05:15:29;;;;;;;6.85;5.00;;;;;;;;;;4985737;28;20108;-78
2021/07/02 05:17:55;;;;;;;10.73;5.00;;;;;;;;;;4978666;28;20034;-78
2021/07/02 05:20:21;;;;;;;7.55;5.18;;;;;;;;;;4988180;28;20035;-78
2021/07/02 05:22:47;;;;;;;9.13;5.05;;;;;;;;;;4983783;28;20023;-79
2021/07/02 05:25:13;;;;;;;8.73;5.38;;;;;;;;;;4982071;28;20031;-80
2021/07/02 05:27:39;;;;;;;10.73;5.35;;;;;;;;;;4981995;28;20037;-79
2021/07/02 05:30:06;;;;;;;8.85;5.63;;;;;;;;;;4977974;28;20122;-79
2021/07/02 05:32:32;;;;;;;7.28;4.97;;;;;;;;;;4978200;28;20029;-79
2021/07/02 05:34:58;;;;;;;8.68;5.45;;;;;;;;;;4976412;28;20058;-78
2021/07/02 05:37:24;;;;;;;8.88;5.55;;;;;;;;;;4977926;28;20030;-78
2021/07/02 05:39:50;;;;;;;11.85;5.63;;;;;;;;;;4979363;28;20387;-84
2021/07/02 05:42:21;;;;;;;8.93;5.40;;;;;;;;;;4979825;28;20031;-81
2021/07/02 05:44:47;;;;;;;11.93;5.45;;;;;;;;;;4959920;28;20354;-81
2021/07/02 05:47:13;;;;;;;11.88;5.43;;;;;;;;;;4981073;28;20046;-81
2021/07/02 05:49:39;;;;;;;11.23;5.65;;;;;;;;;;4974567;28;20093;-78
2021/07/02 05:52:06;;;;;;;11.35;5.80;;;;;;;;;;4953517;28;20655;-78
2021/07/02 05:54:32;;;;;;;9.65;5.85;;;;;;;;;;4955393;29;20039;-78
2021/07/02 05:56:58;;;;;;;10.73;5.68;;;;;;;;;;4948159;28;20456;-78
2021/07/02 05:59:24;;;;;;;15.25;5.72;;;;;;;;;;4936767;28;20114;-78
2021/07/02 06:01:50;;;;;;;10.05;5.57;;;;;;;;;;4949290;28;20098;-78
2021/07/02 06:04:16;;;;;;;9.77;5.72;;;;;;;;;;4962768;28;20444;-78
2021/07/02 06:06:42;;;;;;;8.75;5.60;;;;;;;;;;4953521;28;20528;-78
2021/07/02 06:09:08;;;;;;;9.73;5.65;;;;;;;;;;4950345;28;20020;-78
2021/07/02 06:11:34;;;;;;;11.20;5.47;;;;;;;;;;4953548;29;20032;-78
2021/07/02 06:14:00;;;;;;;8.32;5.40;;;;;;;;;;4966380;28;20501;-78
2021/07/02 06:16:26;;;;;;;7.55;5.40;;;;;;;;;;4976698;28;20067;-78
2021/07/02 06:18:52;;;;;;;9.95;5.90;;;;;;;;;;4980209;28;20035;-78
2021/07/02 06:21:18;;;;;;;10.07;5.20;;;;;;;;;;4979928;28;20035;-78
2021/07/02 06:23:44;;;;;;;7.00;4.80;;;;;;;;;;4980881;28;20404;-78
2021/07/02 06:26:10;;;;;;;9.18;5.70;;;;;;;;;;4979671;28;20103;-78
2021/07/02 06:28:37;;;;;;;9.07;5.32;;;;;;;;;;4977606;28;20026;-78
2021/07/02 06:31:04;;;;;;;9.93;5.15;;;;;;;;;;4977562;28;20035;-79
2021/07/02 06:33:30;;;;;;;9.23;5.57;;;;;;;;;;4976750;28;20050;-79
2021/07/02 06:35:56;;;;;;;9.48;5.30;;;13.40;99.90;;;;;;4975412;28;20082;-79
2021/07/02 06:38:21;;;;;;;9.82;5.70;;;16.50;99.90;;;;;;4975723;28;20046;-77
2021/07/02 06:40:48;;;;;;;6.65;5.25;;;16.50;99.90;;;;;;4973515;28;20035;-78
2021/07/02 06:43:14;;;;;;;10.35;5.05;;;17.20;99.90;;;;;;4956050;28;20555;-78
2021/07/02 06:45:40;;;;;;;9.73;5.50;;;16.70;99.90;;;;;;4955842;28;20508;-78
2021/07/02 06:48:06;;;;;;;7.68;4.85;;;17.80;99.90;;;;;;4955990;28;20031;-79
2021/07/02 06:50:35;;;;;;;8.18;5.20;;;16.80;99.90;;;;;;4955169;28;20031;-80
2021/07/02 06:53:03;;;;;;;11.13;5.68;;;16.70;99.90;;;;;;4956045;29;20035;-78
2021/07/02 06:55:29;;;;;;;10.07;5.45;;;17.40;99.90;;;;;;4955827;29;20055;-79
2021/07/02 06:57:55;;;;;;;8.93;5.75;;;17.00;99.90;;;;;;4955716;28;20015;-79
2021/07/02 07:00:23;;;;;;;9.35;5.20;;;17.00;99.90;;;;;;4955294;28;20028;-79
2021/07/02 07:02:49;;;;;;;8.98;5.30;;;17.10;99.90;;;;;;4974911;28;20106;-79
2021/07/02 07:05:16;;;;;;;7.28;5.53;;;16.80;99.90;;;;;;4974000;28;20023;-79
2021/07/02 07:07:43;;;;;;;9.80;5.28;;;17.10;99.90;;;;;;4975035;28;20055;-79
2021/07/02 07:10:09;;;;;;;11.88;6.35;;;17.30;99.90;;;;;;4964697;28;20027;-78
2021/07/02 07:12:36;;;;;;;9.35;5.78;;;17.30;99.90;;;;;;4955574;29;20031;-77
2021/07/02 07:15:02;;;;;;;7.72;5.53;;;17.30;99.90;;;;;;4955062;28;20547;-76
2021/07/02 07:17:29;;;;;;;7.18;5.40;;;17.30;99.90;;;;;;4967833;28;20031;-76
2021/07/02 07:19:55;;;;;;;9.07;5.72;;;17.20;99.90;;;;;;4958955;28;20098;-77
2021/07/02 07:22:21;;;;;;;10.30;5.82;;;17.60;99.90;;;;;;4955829;28;20106;-77
2021/07/02 07:24:47;;;;;;;10.98;5.05;;;17.70;99.90;;;;;;4955626;28;20034;-77
2021/07/02 07:27:12;;;;;;;9.65;5.70;;;17.70;99.90;;;;;;4969772;28;20035;-77
2021/07/02 07:29:38;;;;;;;9.98;6.28;;;17.80;99.90;;;;;;4954151;29;20034;-76
2021/07/02 07:32:04;;;;;;;9.27;5.43;;;17.80;99.90;;;;;;4955429;29;20039;-76
2021/07/02 07:37:11;;;;;;;7.43;5.20;;;18.00;99.90;;;;;;4955407;28;20023;-77
2021/07/02 07:39:37;;;;;;;7.30;5.10;;;18.10;99.90;;;;;;4955053;28;20531;-77
2021/07/02 07:42:03;;;;;;;8.38;5.63;;;18.10;99.90;;;;;;4955449;29;20031;-77
2021/07/02 07:44:29;;;;;;;6.72;4.60;;;18.20;99.90;;;;;;4955405;28;20496;-77
2021/07/02 07:46:55;;;;;;;10.63;5.30;;;18.20;99.90;;;;;;4955236;28;20046;-77
2021/07/02 07:49:22;;;;;;;9.43;5.20;;;18.10;99.90;;;;;;4954696;28;20035;-77
2021/07/02 07:51:57;;;;;;;9.15;5.35;;;18.10;99.90;;;;;;4955035;28;20035;-77
2021/07/02 07:54:22;;;;;;;8.38;4.72;;;18.00;99.90;;;;;;4955312;29;20119;-76
2021/07/02 07:56:51;;;;;;;8.68;5.07;;;18.10;99.90;;;;;;4954911;28;20106;-76
2021/07/02 07:59:21;;;;;;;10.68;5.55;;;18.20;99.90;;;;;;4954848;29;20500;-76
2021/07/02 08:01:48;;;;;;;7.20;5.05;;;18.10;99.90;;;;;;4954784;29;20035;-77
2021/07/02 08:04:14;;;;;;;7.97;4.65;;;18.30;99.90;;;;;;4954963;29;20028;-76
2021/07/02 08:06:44;;;;;;;8.95;4.80;;;18.40;99.90;;;;;;4954757;28;20638;-77
2021/07/02 08:09:11;;;;;;;10.88;5.00;;;18.70;99.90;;;;;;4958256;28;20508;-77
2021/07/02 08:11:38;;;;;;;9.52;5.13;;;18.60;99.90;;;;;;4974015;28;20103;-77
2021/07/02 08:14:04;;;;;;;12.90;5.03;;;18.60;99.90;;;;;;4962056;28;20037;-77
2021/07/02 08:16:30;;;;;;;9.00;5.03;;;18.60;99.90;;;;;;4954800;29;20033;-77
2021/07/02 08:18:56;;;;;;;7.65;4.82;;;18.70;99.90;;;;;;4955284;28;20078;-77
2021/07/02 08:21:22;;;;;;;6.18;4.45;;;18.60;99.90;;;;;;4955543;29;20110;-77
2021/07/02 08:23:47;;;;;;;7.25;4.78;;;18.90;99.90;;;;;;4954928;29;20019;-77
2021/07/02 08:26:13;;;;;;;10.32;4.57;;;19.10;99.90;;;;;;4954341;29;20118;-76
2021/07/02 08:31:23;;;;;;;10.98;6.10;;;19.20;99.90;;;;;;4962715;29;20058;-77
2021/07/02 08:33:49;;;;;;;6.57;4.57;;;19.30;99.90;;;;;;4970914;28;20450;-75
2021/07/02 08:36:15;;;;;;;7.55;4.47;;;19.30;99.90;;;;;;4954267;29;20037;-75
2021/07/02 08:38:40;;;;;;;8.90;4.88;;;19.50;99.90;;;;;;4984171;28;20035;-75
2021/07/02 08:41:11;;;;;;;6.60;4.78;;;19.60;99.90;;;;;;4972880;28;20484;-76
2021/07/02 08:43:37;;;;;;;7.28;5.25;;;19.80;99.90;;;;;;4982205;28;20033;-76
2021/07/02 08:46:03;;;;;;;8.27;4.75;;;19.70;99.90;;;;;;4942643;28;20456;-77
2021/07/02 08:48:30;;;;;;;10.27;5.05;;;20.20;99.90;;;;;;4945604;28;20038;-76
2021/07/02 08:50:55;;;;;;;8.93;5.80;;;20.00;99.90;;;;;;4948797;28;20028;-76
2021/07/02 08:53:22;;;;;;;8.73;4.72;;;20.20;99.90;;;;;;4949782;28;20381;-76
2021/07/02 08:55:48;;;;;;;8.07;4.32;;;20.20;99.90;;;;;;4948992;28;20027;-75
2021/07/02 08:58:15;;;;;;;9.63;4.70;;;20.40;99.90;;;;;;4950475;28;20023;-75
2021/07/02 09:00:44;;;;;;;7.55;4.43;;;20.20;99.90;;;;;;4947351;29;20554;-75
2021/07/02 09:03:29;;;;;;;7.15;4.57;;;20.50;99.90;;;;;;4955311;28;20031;-75
2021/07/02 09:05:56;;;;;;;9.45;4.82;;;20.70;99.90;;;;;;4949466;28;20087;-75
2021/07/02 09:08:23;;;;;;;6.95;3.83;;;20.60;99.90;;;;;;4968398;28;20510;-75
2021/07/02 09:10:49;;;;;;;8.07;4.32;;;20.40;99.90;;;;;;4965771;28;20122;-75
2021/07/02 09:13:15;;;;;;;7.60;3.85;;;20.50;99.90;;;;;;4962780;28;20078;-76
2021/07/02 09:15:49;;;;;;;8.63;4.00;;;20.50;99.90;;;;;;4949449;29;20026;-76
2021/07/02 09:18:16;;;;;;;8.15;4.18;;;20.80;99.90;;;;;;4997485;23;20053;-78
2021/07/02 09:20:44;;;;;;;5.32;3.67;;;20.90;99.90;;;;;;4969085;28;20027;-79
2021/07/02 09:23:13;;;;;;;6.07;4.10;;;21.10;99.90;;;;;;4969267;28;20027;-76
2021/07/02 09:25:47;;;;;;;9.38;5.50;;;21.50;99.90;;;;;;4969329;28;20046;-79
2021/07/02 09:28:15;;;;;;;9.50;4.07;;;21.60;99.90;;;;;;4969477;28;20057;-79
2021/07/02 09:30:42;;;;;;;6.93;3.90;;;21.40;99.90;;;;;;4966910;28;20027;-79
2021/07/02 09:33:25;;;;;;;13.50;6.80;;;21.40;96.80;;;;;;4969499;28;20030;-79
2021/07/02 09:36:01;;;;;;;6.30;4.40;;;21.20;99.90;;;;;;4971148;28;20058;-78
2021/07/02 09:38:31;;;;;;;7.55;4.20;;;21.50;99.50;;;;;;4972327;28;20117;-80
2021/07/02 09:40:57;;;;;;;6.80;4.40;;;21.70;99.10;;;;;;4978276;28;20031;-78
2021/07/02 09:43:26;;;;;;;7.30;4.05;;;22.00;99.20;;;;;;4962202;28;20023;-76
2021/07/02 09:46:07;;;;;;;7.75;4.00;;;21.90;96.50;;;;;;4949270;28;20024;-80
2021/07/02 09:48:45;;;;;;;7.95;3.88;;;21.60;97.00;;;;;;4950458;28;20031;-77
2021/07/02 09:51:12;;;;;;;8.38;4.00;;;21.50;97.30;;;;;;4949153;28;20506;-77
2021/07/02 09:53:40;;;;;;;7.55;4.90;;;21.70;96.70;;;;;;4952915;28;20426;-78
2021/07/02 09:56:09;;;;;;;9.60;5.28;;;21.90;96.60;;;;;;4953321;28;20055;-77
2021/07/02 09:58:39;;;;;;;5.22;3.78;;;22.50;99.70;;;;;;4952792;28;20049;-78
2021/07/02 10:01:07;;;;;;;6.60;3.70;;;23.30;95.10;;;;;;4958541;28;20551;-77
2021/07/02 10:03:32;;;;;;;5.78;3.92;;;23.30;92.30;;;;;;4971817;28;20031;-79
2021/07/02 10:06:04;;;;;;;10.05;6.70;;;23.70;91.10;;;;;;4972439;28;20439;-78
2021/07/02 10:08:35;;;;;;;11.18;6.82;;;24.10;89.80;;;;;;4974738;28;20031;-77
2021/07/02 10:11:02;;;;;;;5.25;3.85;;;24.90;88.00;;;;;;4970768;28;20492;-78
2021/07/02 10:13:34;;;;;;;7.07;4.43;;;25.00;86.50;;;;;;4972549;28;20061;-78
2021/07/02 10:16:05;;;;;;;4.95;4.00;;;24.50;85.10;;;;;;4972533;28;20080;-77
2021/07/02 10:18:33;;;;;;;5.70;3.95;;;24.10;87.00;;;;;;4971454;28;20039;-78
2021/07/02 10:21:02;;;;;;;8.77;4.50;;;23.80;86.00;;;;;;4970924;28;20051;-78
2021/07/02 10:23:34;;;;;;;8.75;4.00;;;23.40;87.30;;;;;;4972661;28;20520;-78
2021/07/02 10:26:02;;;;;;;5.95;3.80;;;23.30;85.20;;;;;;4972389;28;20035;-78
2021/07/02 10:28:30;;;;;;;6.50;4.30;;;23.70;85.00;;;;;;4970577;28;20446;-75
2021/07/02 10:30:56;;;;;;;6.78;3.72;;;23.70;82.80;;;;;;4952997;28;20015;-79
2021/07/02 10:33:24;;;;;;;6.10;4.18;;;24.00;84.60;;;;;;4954484;28;20608;-78
2021/07/02 10:35:58;;;;;;;11.25;5.10;;;23.90;82.70;;;;;;4953118;28;20418;-78
2021/07/02 10:38:43;;;;;;;9.77;4.90;;;23.90;85.30;;;;;;4952914;28;20019;-78
2021/07/02 10:41:17;;;;;;;5.93;3.90;;;24.50;87.50;;;;;;4953345;29;20031;-78
2021/07/02 10:44:02;;;;;;;16.13;4.88;;;24.90;81.90;;;;;;4958809;28;20015;-78
2021/07/02 10:46:36;;;;;;;6.05;3.75;;;25.50;84.50;;;;;;4954182;28;20528;-78
2021/07/02 10:49:12;;;;;;;6.97;3.53;;;26.30;79.70;;;;;;4954059;28;20424;-78
2021/07/02 10:51:41;;;;;;;4.95;3.42;;;27.30;75.70;;;;;;4971841;28;20102;-78
2021/07/02 10:54:17;;;;;;;6.00;3.90;;;27.40;75.20;;;;;;4964966;28;20085;-78
2021/07/02 10:57:04;;;;;;;5.30;3.97;;;27.20;73.10;;;;;;4962833;28;20062;-78
2021/07/02 10:59:36;;;;;;;4.90;3.90;;;26.80;73.50;;;;;;4960813;28;20476;-78
2021/07/02 11:02:08;;;;;;;5.90;3.70;;;26.50;74.50;;;;;;4958562;28;20019;-78
2021/07/02 11:04:35;;;;;;;5.18;3.97;;;26.00;77.80;;;;;;4961485;28;20023;-77
2021/07/02 11:09:49;;;;;;;5.53;4.20;;;25.90;80.70;;;;;;4962567;28;20454;-78
2021/07/02 11:12:16;;;;;;;6.55;4.25;;;25.10;83.20;;;;;;4961630;28;20604;-77
2021/07/02 11:15:03;;;;;;;8.80;4.05;;;25.20;83.20;;;;;;4972562;28;20037;-77
2021/07/02 11:17:37;;;;;;;5.05;3.83;;;26.20;79.40;;;;;;4963925;28;20023;-77
2021/07/02 11:20:08;;;;;;;10.23;4.30;;;26.70;76.70;;;;;;4961786;28;20030;-78
2021/07/02 11:22:36;;;;;;;7.37;4.73;;;26.40;80.00;;;;;;4962317;28;20082;-78
2021/07/02 11:25:08;;;;;;;6.38;4.18;;;25.90;78.00;;;;;;4961658;28;20058;-77
2021/07/02 11:33:21;;;;;;;7.20;4.22;;;25.80;77.90;;;;;;4951014;28;20035;-78
2021/07/02 11:35:50;;;;;;;7.53;4.63;;;25.40;79.20;;;;;;4950909;28;20054;-79
2021/07/02 11:38:20;;;;;;;8.20;4.20;;;25.20;81.40;;;;;;4950461;29;20023;-79
2021/07/02 11:40:49;;;;;;;6.57;4.40;;;25.50;81.80;;;;;;4950267;28;20057;-79
2021/07/02 11:43:20;;;;;;;5.57;4.53;;;25.60;79.20;;;;;;4956178;28;20114;-79
2021/07/02 11:45:54;;;;;;;4.93;4.20;;;26.00;81.10;;;;;;4970368;28;20038;-77
2021/07/02 11:48:22;;;;;;;7.22;3.92;;;26.70;78.10;;;;;;4970513;28;20027;-77
2021/07/02 11:50:53;;;;;;;7.25;4.18;;;28.00;78.20;;;;;;4969826;28;20063;-77
2021/07/02 11:53:31;;;;;;;4.50;3.60;;;28.30;73.40;;;;;;4970052;28;20504;-78
2021/07/02 11:56:09;;;;;;;6.45;4.03;;;28.20;74.40;;;;;;4969957;28;20023;-77
2021/07/02 11:58:49;;;;;;;7.95;4.35;;;27.40;74.40;;;;;;4950482;28;20035;-76
2021/07/02 12:01:22;;;;;;;4.82;3.58;;;27.10;76.80;;;;;;4950163;28;20667;-77
2021/07/02 12:03:55;;;;;;;5.80;4.20;;;25.90;77.50;;;;;;4950512;28;20453;-76
2021/07/02 12:06:28;;;;;;;5.45;4.20;;;25.40;81.00;;;;;;4961563;28;20443;-77
2021/07/02 12:08:58;;;;;;;8.75;4.32;;;25.30;81.70;;;;;;4970177;28;20038;-77
2021/07/02 12:11:35;;;;;;;5.32;4.18;;;26.20;80.40;;;;;;4969161;28;20026;-77
2021/07/02 12:14:02;;;;;;;5.28;4.07;;;26.80;79.40;;;;;;4963554;28;20019;-77
2021/07/02 12:16:34;;;;;;;8.65;4.25;;;26.30;80.50;;;;;;4961793;28;20082;-77
2021/07/02 12:19:01;;;;;;;6.80;3.97;;;26.20;80.00;;;;;;4949064;28;20031;-78
2021/07/02 12:21:30;;;;;;;5.88;4.05;;;25.90;80.20;;;;;;4961717;28;20027;-78
2021/07/02 12:23:59;;;;;;;5.93;4.18;;;25.50;81.50;;;;;;4977285;28;20031;-78
2021/07/02 12:26:28;;;;;;;5.05;4.28;;;25.80;81.10;;;;;;4969057;28;20102;-77
2021/07/02 12:29:05;;;;;;;7.00;4.30;;;26.70;77.00;;;;;;4965183;28;20034;-76
2021/07/02 12:31:31;;;;;;;5.18;3.95;;;;;;;;;;4963942;28;20027;-77
2021/07/02 12:33:58;;;;;;;6.15;4.20;;;;;;;;;;4958888;28;20392;-77
2021/07/02 12:36:24;;;;;;;8.10;4.75;;;;;;;;;;4960815;28;20027;-77
2021/07/02 12:39:05;;;;;;;5.90;4.43;;;27.50;78.20;;;;;;4961528;28;20023;-77
2021/07/02 12:41:36;;;;;;;6.95;4.15;;;28.00;76.10;;;;;;4965308;28;20038;-78
2021/07/02 12:44:02;;;;;;;6.63;4.33;;;28.70;73.40;;;;;;4965988;28;20047;-78
2021/07/02 12:46:28;;;;;;;5.57;4.20;;;28.60;73.40;;;;;;4959540;28;20065;-78
2021/07/02 12:49:13;;;;;;;6.53;4.65;;;;;;;;;;4964140;28;20749;-77
2021/07/02 12:51:48;;;;;;;5.00;4.30;;;;;;;;;;4975070;28;20035;-79
2021/07/02 12:56:59;;;;;;;5.68;3.70;;;;;;;;;;4956031;28;20042;-77
2021/07/02 12:59:25;;;;;;;6.45;4.18;;;;;;;;;;4959871;28;20057;-78
2021/07/02 13:01:51;;;;;;;9.45;4.07;;;;;;;;;;4962321;28;20054;-77
2021/07/02 13:04:17;;;;;;;4.40;3.47;;;;;;;;;;4961707;28;20023;-77
2021/07/02 13:06:43;;;;;;;5.78;3.70;;;;;;;;;;4957894;28;20058;-77
2021/07/02 13:09:35;;;;;;;6.10;4.07;;;;;;;;;;4959523;28;20118;-77
2021/07/02 13:12:01;;;;;;;;;;;;;;;;;;4959369;28;20046;-78
2021/07/02 13:14:28;;;;;;;5.75;4.30;;;;;;;;;;4963242;28;19906;-77
2021/07/02 13:16:54;;;;;;;5.13;4.07;;;;;;;;;;4958805;28;20027;-77
2021/07/02 13:19:30;;;;;;;4.93;3.65;;;;;;;;;;4959531;28;20577;-77
2021/07/02 13:22:10;;;;;;;4.90;4.05;;;;;;;;;;4956966;28;20028;-77
2021/07/02 13:24:36;;;;;;;5.80;4.10;;;;;;;;;;4959515;28;20534;-77
2021/07/02 13:27:02;;;;;;;5.85;4.20;;;;;;;;;;4979694;28;20027;-77
2021/07/02 13:29:32;;;;;;;5.50;4.15;;;;;;;;;;4966873;28;20030;-77
2021/07/02 13:31:58;;;;;;;7.15;4.70;;;;;;;;;;4971523;28;20038;-78
2021/07/02 13:34:26;;;;;;;5.20;4.10;;;;;;;;;;4974000;28;20015;-77
2021/07/02 13:36:57;;;;;;;8.77;4.55;;;;;;;;;;4966805;28;20026;-78